Airfield :
LOGIN :

Register | Disclaimer

   EN    FR    IT 

 










Legend :    VFR   Marginal VFR   IFR   Intensive IFR   Very Intensive IFR
Visi :
Ceiling :
>= 8 km
>= 3000ft
5 to 8 km
1000 to 3000 ft
1500m to 5 km
500 to 1000 ft
800 to 1500m
200 to 500 ft
< 800m
< 200 ft
Symbols :   Thunderstorms  Fog  Heavy snow  Heavy precipitations  Wind > 20 kt
SIGMETs :     Misc.  Thunderstorms  Icing  Turbulence  Mountain Waves  Volcanic Ashes






- Airport Elevation : 390 ft
- IATA code : NQY


EGHQ - Newquay

CURRENT METAR :
  • 200250Z AUTO 22022G33KT 9999 BKN011/// 09/08 Q1010

EXPIRED METARs :
  • 200220Z AUTO 22021KT 9999 BKN011/// 09/08 Q1011 REDZ
  • 200150Z AUTO 22022KT 9999 BKN011/// BKN041/// 09/08 Q1011 REDZ
  • 200120Z AUTO 22020KT 9999 BKN011/// 09/08 Q1011 REDZ
  • 200050Z AUTO 22020KT 9999 BKN010/// BKN035/// 09/08 Q1012 REDZ

TAF TAF EGHQ
Valid from the 20 at 03:00 until the 20 at 12:00 UTC


200213Z 2003/2012 22020G30KT 9999 SCT010 BKN020
TEMPO 2003/2005 7000 -RADZ BKN007
BECMG 2005/2007 8000 -RA BKN010
TEMPO 2007/2011 4000 RA BKN006
BECMG 2008/2010 28019G32KT
PROB40
TEMPO 2008/2010 22025G40KT 1400 +RA BKN002
BECMG 2011/2012 9999 NSW SCT022



MET'MAP, your aeronautical weather chart ! - Copyright ORBIFLY December 2007 - Disclaimer

ORBIFLY MET'MAP TEAM :

Programming & Development : Alexandra Zaïnal
Concept & original design : Baudouin d'Aumeries
Assistance for programming : Marc-Olivier Méhu
Technical & hardware support : Manuel Goepfert

Contact : metmap@orbifly.com




SOURCES & CREDITS :

   NOAA